sensor_id;sensor_type;location;lat;lon;timestamp;P1;durP1;ratioP1;P2;durP2;ratioP2
83141;SDS011;75194;51.180;5.972;2024-01-27T00:01:11;12.77;;;2.47;;
83141;SDS011;75194;51.180;5.972;2024-01-27T00:03:36;12.85;;;3.00;;
83141;SDS011;75194;51.180;5.972;2024-01-27T00:06:02;10.75;;;2.28;;
83141;SDS011;75194;51.180;5.972;2024-01-27T00:08:27;9.75;;;2.38;;
83141;SDS011;75194;51.180;5.972;2024-01-27T00:10:53;8.55;;;2.40;;
83141;SDS011;75194;51.180;5.972;2024-01-27T00:13:19;9.57;;;2.63;;
83141;SDS011;75194;51.180;5.972;2024-01-27T00:15:44;10.38;;;2.47;;
83141;SDS011;75194;51.180;5.972;2024-01-27T00:18:10;11.80;;;2.50;;
83141;SDS011;75194;51.180;5.972;2024-01-27T00:20:36;11.75;;;2.33;;
83141;SDS011;75194;51.180;5.972;2024-01-27T00:23:02;9.60;;;2.65;;
83141;SDS011;75194;51.180;5.972;2024-01-27T00:25:29;11.13;;;2.40;;
83141;SDS011;75194;51.180;5.972;2024-01-27T00:27:54;14.05;;;2.40;;
83141;SDS011;75194;51.180;5.972;2024-01-27T00:30:20;13.27;;;2.58;;
83141;SDS011;75194;51.180;5.972;2024-01-27T00:32:46;12.32;;;2.33;;
83141;SDS011;75194;51.180;5.972;2024-01-27T00:35:11;14.35;;;2.70;;
83141;SDS011;75194;51.180;5.972;2024-01-27T00:37:40;11.90;;;3.00;;
83141;SDS011;75194;51.180;5.972;2024-01-27T00:40:11;14.75;;;2.97;;
83141;SDS011;75194;51.180;5.972;2024-01-27T00:42:37;11.43;;;3.03;;
83141;SDS011;75194;51.180;5.972;2024-01-27T00:45:06;10.80;;;2.40;;
83141;SDS011;75194;51.180;5.972;2024-01-27T00:47:36;10.82;;;2.92;;
83141;SDS011;75194;51.180;5.972;2024-01-27T00:50:02;13.00;;;2.67;;
83141;SDS011;75194;51.180;5.972;2024-01-27T00:52:29;10.77;;;2.22;;
83141;SDS011;75194;51.180;5.972;2024-01-27T00:54:54;10.35;;;2.92;;
83141;SDS011;75194;51.180;5.972;2024-01-27T00:57:20;10.15;;;3.17;;
83141;SDS011;75194;51.180;5.972;2024-01-27T00:59:46;11.00;;;3.47;;
83141;SDS011;75194;51.180;5.972;2024-01-27T01:02:12;8.88;;;2.22;;
83141;SDS011;75194;51.180;5.972;2024-01-27T01:04:37;11.23;;;2.85;;
83141;SDS011;75194;51.180;5.972;2024-01-27T01:07:03;11.02;;;3.28;;
83141;SDS011;75194;51.180;5.972;2024-01-27T01:09:28;9.30;;;3.17;;
83141;SDS011;75194;51.180;5.972;2024-01-27T01:11:54;8.68;;;2.30;;
83141;SDS011;75194;51.180;5.972;2024-01-27T01:14:20;13.02;;;3.05;;
83141;SDS011;75194;51.180;5.972;2024-01-27T01:16:45;10.23;;;3.28;;
83141;SDS011;75194;51.180;5.972;2024-01-27T01:19:11;9.98;;;3.05;;
83141;SDS011;75194;51.180;5.972;2024-01-27T01:21:37;11.23;;;3.05;;
83141;SDS011;75194;51.180;5.972;2024-01-27T01:24:02;9.68;;;2.75;;
83141;SDS011;75194;51.180;5.972;2024-01-27T01:26:28;10.93;;;4.25;;
83141;SDS011;75194;51.180;5.972;2024-01-27T01:28:54;11.35;;;3.00;;
83141;SDS011;75194;51.180;5.972;2024-01-27T01:31:19;17.63;;;3.75;;
83141;SDS011;75194;51.180;5.972;2024-01-27T01:33:45;10.45;;;3.13;;
83141;SDS011;75194;51.180;5.972;2024-01-27T01:36:10;12.85;;;3.25;;
83141;SDS011;75194;51.180;5.972;2024-01-27T01:38:36;11.10;;;2.78;;
83141;SDS011;75194;51.180;5.972;2024-01-27T01:41:01;15.02;;;3.85;;
83141;SDS011;75194;51.180;5.972;2024-01-27T01:43:27;12.80;;;2.85;;
83141;SDS011;75194;51.180;5.972;2024-01-27T01:45:53;11.27;;;3.45;;
83141;SDS011;75194;51.180;5.972;2024-01-27T01:48:19;15.48;;;3.88;;
83141;SDS011;75194;51.180;5.972;2024-01-27T01:50:45;11.05;;;3.28;;
83141;SDS011;75194;51.180;5.972;2024-01-27T01:53:12;12.02;;;3.40;;
83141;SDS011;75194;51.180;5.972;2024-01-27T01:55:38;11.63;;;3.70;;
83141;SDS011;75194;51.180;5.972;2024-01-27T01:58:05;10.15;;;3.33;;
83141;SDS011;75194;51.180;5.972;2024-01-27T02:00:31;12.60;;;3.40;;
83141;SDS011;75194;51.180;5.972;2024-01-27T02:02:57;9.95;;;3.45;;
83141;SDS011;75194;51.180;5.972;2024-01-27T02:05:22;12.70;;;3.72;;
83141;SDS011;75194;51.180;5.972;2024-01-27T02:07:48;12.48;;;4.07;;
83141;SDS011;75194;51.180;5.972;2024-01-27T02:10:14;12.45;;;3.60;;
83141;SDS011;75194;51.180;5.972;2024-01-27T02:12:41;13.05;;;3.63;;
83141;SDS011;75194;51.180;5.972;2024-01-27T02:15:11;12.38;;;3.25;;
83141;SDS011;75194;51.180;5.972;2024-01-27T02:17:40;13.23;;;3.70;;
83141;SDS011;75194;51.180;5.972;2024-01-27T02:20:06;11.57;;;3.78;;
83141;SDS011;75194;51.180;5.972;2024-01-27T02:22:36;11.77;;;3.65;;
83141;SDS011;75194;51.180;5.972;2024-01-27T02:25:02;11.98;;;3.05;;
83141;SDS011;75194;51.180;5.972;2024-01-27T02:27:28;13.57;;;4.15;;
83141;SDS011;75194;51.180;5.972;2024-01-27T02:29:54;11.98;;;3.42;;
83141;SDS011;75194;51.180;5.972;2024-01-27T02:32:19;17.70;;;4.35;;
83141;SDS011;75194;51.180;5.972;2024-01-27T02:34:45;14.75;;;3.63;;
83141;SDS011;75194;51.180;5.972;2024-01-27T02:37:11;16.65;;;3.55;;
83141;SDS011;75194;51.180;5.972;2024-01-27T02:39:37;10.20;;;3.33;;
83141;SDS011;75194;51.180;5.972;2024-01-27T02:42:05;12.10;;;3.25;;
83141;SDS011;75194;51.180;5.972;2024-01-27T02:44:31;12.55;;;3.88;;
83141;SDS011;75194;51.180;5.972;2024-01-27T02:46:56;12.88;;;3.70;;
83141;SDS011;75194;51.180;5.972;2024-01-27T02:49:22;12.32;;;3.90;;
83141;SDS011;75194;51.180;5.972;2024-01-27T02:51:47;13.07;;;3.53;;
83141;SDS011;75194;51.180;5.972;2024-01-27T02:54:13;9.98;;;3.28;;
83141;SDS011;75194;51.180;5.972;2024-01-27T02:56:38;12.40;;;3.22;;
83141;SDS011;75194;51.180;5.972;2024-01-27T02:59:04;11.13;;;3.47;;
83141;SDS011;75194;51.180;5.972;2024-01-27T03:01:30;16.50;;;3.95;;
83141;SDS011;75194;51.180;5.972;2024-01-27T03:03:55;10.30;;;3.20;;
83141;SDS011;75194;51.180;5.972;2024-01-27T03:06:21;10.63;;;3.55;;
83141;SDS011;75194;51.180;5.972;2024-01-27T03:08:46;12.82;;;3.85;;
83141;SDS011;75194;51.180;5.972;2024-01-27T03:11:12;9.07;;;3.08;;
83141;SDS011;75194;51.180;5.972;2024-01-27T03:13:38;10.90;;;4.72;;
83141;SDS011;75194;51.180;5.972;2024-01-27T03:16:09;11.18;;;3.47;;
83141;SDS011;75194;51.180;5.972;2024-01-27T03:18:36;13.77;;;4.15;;
83141;SDS011;75194;51.180;5.972;2024-01-27T03:21:02;13.40;;;4.47;;
83141;SDS011;75194;51.180;5.972;2024-01-27T03:23:28;13.65;;;4.60;;
83141;SDS011;75194;51.180;5.972;2024-01-27T03:25:53;14.75;;;3.78;;
83141;SDS011;75194;51.180;5.972;2024-01-27T03:28:19;14.43;;;3.70;;
83141;SDS011;75194;51.180;5.972;2024-01-27T03:30:45;10.52;;;3.35;;
83141;SDS011;75194;51.180;5.972;2024-01-27T03:33:11;13.73;;;3.35;;
83141;SDS011;75194;51.180;5.972;2024-01-27T03:35:37;11.50;;;3.65;;
83141;SDS011;75194;51.180;5.972;2024-01-27T03:38:05;12.57;;;3.40;;
83141;SDS011;75194;51.180;5.972;2024-01-27T03:40:31;11.63;;;2.95;;
83141;SDS011;75194;51.180;5.972;2024-01-27T03:42:56;15.48;;;3.72;;
83141;SDS011;75194;51.180;5.972;2024-01-27T03:45:22;11.82;;;3.47;;
83141;SDS011;75194;51.180;5.972;2024-01-27T03:47:48;16.10;;;3.38;;
83141;SDS011;75194;51.180;5.972;2024-01-27T03:50:13;9.68;;;2.85;;
83141;SDS011;75194;51.180;5.972;2024-01-27T03:52:39;13.20;;;3.15;;
83141;SDS011;75194;51.180;5.972;2024-01-27T03:55:06;16.00;;;3.33;;
83141;SDS011;75194;51.180;5.972;2024-01-27T03:57:32;11.20;;;3.15;;
83141;SDS011;75194;51.180;5.972;2024-01-27T03:59:57;17.52;;;3.95;;
83141;SDS011;75194;51.180;5.972;2024-01-27T04:02:23;12.52;;;2.88;;
83141;SDS011;75194;51.180;5.972;2024-01-27T04:04:49;11.65;;;3.42;;
83141;SDS011;75194;51.180;5.972;2024-01-27T04:07:14;11.75;;;3.63;;
83141;SDS011;75194;51.180;5.972;2024-01-27T04:09:40;11.52;;;3.20;;
83141;SDS011;75194;51.180;5.972;2024-01-27T04:12:05;13.35;;;3.42;;
83141;SDS011;75194;51.180;5.972;2024-01-27T04:14:31;10.43;;;3.33;;
83141;SDS011;75194;51.180;5.972;2024-01-27T04:16:57;14.70;;;4.25;;
83141;SDS011;75194;51.180;5.972;2024-01-27T04:19:22;13.00;;;3.55;;
83141;SDS011;75194;51.180;5.972;2024-01-27T04:21:48;13.00;;;3.67;;
83141;SDS011;75194;51.180;5.972;2024-01-27T04:24:14;11.45;;;3.50;;
83141;SDS011;75194;51.180;5.972;2024-01-27T04:26:39;9.48;;;3.15;;
83141;SDS011;75194;51.180;5.972;2024-01-27T04:29:05;12.60;;;3.80;;
83141;SDS011;75194;51.180;5.972;2024-01-27T04:31:30;14.95;;;3.45;;
83141;SDS011;75194;51.180;5.972;2024-01-27T04:33:56;11.82;;;3.25;;
83141;SDS011;75194;51.180;5.972;2024-01-27T04:36:26;12.60;;;3.50;;
83141;SDS011;75194;51.180;5.972;2024-01-27T04:38:53;13.05;;;3.53;;
83141;SDS011;75194;51.180;5.972;2024-01-27T04:41:19;17.45;;;3.55;;
83141;SDS011;75194;51.180;5.972;2024-01-27T04:43:44;13.23;;;3.67;;
83141;SDS011;75194;51.180;5.972;2024-01-27T04:46:10;12.52;;;3.13;;
83141;SDS011;75194;51.180;5.972;2024-01-27T04:48:36;15.20;;;3.50;;
83141;SDS011;75194;51.180;5.972;2024-01-27T04:51:01;10.15;;;3.30;;
83141;SDS011;75194;51.180;5.972;2024-01-27T04:53:27;12.80;;;3.50;;
83141;SDS011;75194;51.180;5.972;2024-01-27T04:55:52;11.60;;;3.35;;
83141;SDS011;75194;51.180;5.972;2024-01-27T04:58:18;13.27;;;3.67;;
83141;SDS011;75194;51.180;5.972;2024-01-27T05:00:44;12.02;;;4.18;;
83141;SDS011;75194;51.180;5.972;2024-01-27T05:03:09;10.43;;;3.65;;
83141;SDS011;75194;51.180;5.972;2024-01-27T05:05:40;15.93;;;3.17;;
83141;SDS011;75194;51.180;5.972;2024-01-27T05:08:07;11.75;;;3.35;;
83141;SDS011;75194;51.180;5.972;2024-01-27T05:10:33;11.70;;;2.90;;
83141;SDS011;75194;51.180;5.972;2024-01-27T05:12:58;12.18;;;3.38;;
83141;SDS011;75194;51.180;5.972;2024-01-27T05:15:24;9.93;;;3.30;;
83141;SDS011;75194;51.180;5.972;2024-01-27T05:17:50;11.18;;;3.05;;
83141;SDS011;75194;51.180;5.972;2024-01-27T05:20:16;11.48;;;3.17;;
83141;SDS011;75194;51.180;5.972;2024-01-27T05:22:43;14.07;;;4.97;;
83141;SDS011;75194;51.180;5.972;2024-01-27T05:25:09;13.65;;;3.22;;
83141;SDS011;75194;51.180;5.972;2024-01-27T05:27:36;9.95;;;3.35;;
83141;SDS011;75194;51.180;5.972;2024-01-27T05:30:03;10.32;;;3.25;;
83141;SDS011;75194;51.180;5.972;2024-01-27T05:32:29;9.15;;;2.70;;
83141;SDS011;75194;51.180;5.972;2024-01-27T05:34:55;9.85;;;3.15;;
83141;SDS011;75194;51.180;5.972;2024-01-27T05:37:21;15.35;;;4.15;;
83141;SDS011;75194;51.180;5.972;2024-01-27T05:39:46;10.43;;;3.05;;
83141;SDS011;75194;51.180;5.972;2024-01-27T05:42:12;11.32;;;3.00;;
83141;SDS011;75194;51.180;5.972;2024-01-27T05:44:37;14.77;;;4.57;;
83141;SDS011;75194;51.180;5.972;2024-01-27T05:47:05;14.45;;;4.38;;
83141;SDS011;75194;51.180;5.972;2024-01-27T05:49:31;12.55;;;3.78;;
83141;SDS011;75194;51.180;5.972;2024-01-27T05:51:57;11.52;;;3.33;;
83141;SDS011;75194;51.180;5.972;2024-01-27T05:54:22;12.50;;;3.50;;
83141;SDS011;75194;51.180;5.972;2024-01-27T05:56:49;12.13;;;3.22;;
83141;SDS011;75194;51.180;5.972;2024-01-27T05:59:15;12.02;;;3.45;;
83141;SDS011;75194;51.180;5.972;2024-01-27T06:01:40;11.18;;;3.60;;
83141;SDS011;75194;51.180;5.972;2024-01-27T06:04:08;11.88;;;3.28;;
83141;SDS011;75194;51.180;5.972;2024-01-27T06:06:34;13.70;;;3.67;;
83141;SDS011;75194;51.180;5.972;2024-01-27T06:09:02;9.95;;;3.47;;
83141;SDS011;75194;51.180;5.972;2024-01-27T06:11:28;13.35;;;3.47;;
83141;SDS011;75194;51.180;5.972;2024-01-27T06:13:55;11.18;;;2.83;;
83141;SDS011;75194;51.180;5.972;2024-01-27T06:16:21;14.45;;;3.53;;
83141;SDS011;75194;51.180;5.972;2024-01-27T06:18:46;9.98;;;3.55;;
83141;SDS011;75194;51.180;5.972;2024-01-27T06:21:12;15.60;;;4.18;;
83141;SDS011;75194;51.180;5.972;2024-01-27T06:23:38;16.40;;;3.50;;
83141;SDS011;75194;51.180;5.972;2024-01-27T06:26:07;9.65;;;3.67;;
83141;SDS011;75194;51.180;5.972;2024-01-27T06:28:33;11.65;;;3.53;;
83141;SDS011;75194;51.180;5.972;2024-01-27T06:30:59;10.68;;;3.17;;
83141;SDS011;75194;51.180;5.972;2024-01-27T06:33:26;12.45;;;3.33;;
83141;SDS011;75194;51.180;5.972;2024-01-27T06:35:51;13.55;;;4.20;;
83141;SDS011;75194;51.180;5.972;2024-01-27T06:38:17;12.50;;;3.53;;
83141;SDS011;75194;51.180;5.972;2024-01-27T06:40:42;13.93;;;3.90;;
83141;SDS011;75194;51.180;5.972;2024-01-27T06:43:10;9.77;;;3.80;;
83141;SDS011;75194;51.180;5.972;2024-01-27T06:45:37;9.75;;;3.50;;
83141;SDS011;75194;51.180;5.972;2024-01-27T06:48:04;13.52;;;4.35;;
83141;SDS011;75194;51.180;5.972;2024-01-27T06:50:30;10.60;;;3.65;;
83141;SDS011;75194;51.180;5.972;2024-01-27T06:52:56;11.07;;;3.30;;
83141;SDS011;75194;51.180;5.972;2024-01-27T06:55:21;11.38;;;3.55;;
83141;SDS011;75194;51.180;5.972;2024-01-27T06:57:47;8.85;;;3.38;;
83141;SDS011;75194;51.180;5.972;2024-01-27T07:00:12;12.27;;;3.95;;
83141;SDS011;75194;51.180;5.972;2024-01-27T07:02:42;13.30;;;4.03;;
83141;SDS011;75194;51.180;5.972;2024-01-27T07:05:08;10.93;;;3.88;;
83141;SDS011;75194;51.180;5.972;2024-01-27T07:07:34;14.63;;;4.30;;
83141;SDS011;75194;51.180;5.972;2024-01-27T07:10:00;14.05;;;3.95;;
83141;SDS011;75194;51.180;5.972;2024-01-27T07:12:26;11.00;;;4.15;;
83141;SDS011;75194;51.180;5.972;2024-01-27T07:14:51;14.88;;;4.20;;
83141;SDS011;75194;51.180;5.972;2024-01-27T07:17:17;12.80;;;3.63;;
83141;SDS011;75194;51.180;5.972;2024-01-27T07:19:43;15.38;;;4.25;;
83141;SDS011;75194;51.180;5.972;2024-01-27T07:22:09;15.13;;;3.88;;
83141;SDS011;75194;51.180;5.972;2024-01-27T07:24:35;11.98;;;3.90;;
83141;SDS011;75194;51.180;5.972;2024-01-27T07:27:01;12.52;;;4.07;;
83141;SDS011;75194;51.180;5.972;2024-01-27T07:29:27;13.45;;;4.25;;
83141;SDS011;75194;51.180;5.972;2024-01-27T07:31:52;13.35;;;3.95;;
83141;SDS011;75194;51.180;5.972;2024-01-27T07:34:18;13.80;;;4.15;;
83141;SDS011;75194;51.180;5.972;2024-01-27T07:36:44;13.10;;;3.70;;
83141;SDS011;75194;51.180;5.972;2024-01-27T07:39:10;12.48;;;4.53;;
83141;SDS011;75194;51.180;5.972;2024-01-27T07:41:36;17.13;;;5.50;;
83141;SDS011;75194;51.180;5.972;2024-01-27T07:44:08;14.80;;;5.88;;
83141;SDS011;75194;51.180;5.972;2024-01-27T07:46:38;20.83;;;5.00;;
83141;SDS011;75194;51.180;5.972;2024-01-27T07:49:04;15.30;;;5.05;;
83141;SDS011;75194;51.180;5.972;2024-01-27T07:51:35;16.40;;;4.40;;
83141;SDS011;75194;51.180;5.972;2024-01-27T07:54:00;11.05;;;4.43;;
83141;SDS011;75194;51.180;5.972;2024-01-27T07:56:26;15.13;;;4.90;;
83141;SDS011;75194;51.180;5.972;2024-01-27T07:58:52;13.55;;;4.82;;
83141;SDS011;75194;51.180;5.972;2024-01-27T08:01:19;13.25;;;3.47;;
83141;SDS011;75194;51.180;5.972;2024-01-27T08:03:45;13.95;;;3.75;;
83141;SDS011;75194;51.180;5.972;2024-01-27T08:06:14;17.35;;;4.55;;
83141;SDS011;75194;51.180;5.972;2024-01-27T08:08:42;15.35;;;4.15;;
83141;SDS011;75194;51.180;5.972;2024-01-27T08:11:11;16.33;;;3.97;;
83141;SDS011;75194;51.180;5.972;2024-01-27T08:13:37;14.05;;;3.63;;
83141;SDS011;75194;51.180;5.972;2024-01-27T08:16:03;16.55;;;3.80;;
83141;SDS011;75194;51.180;5.972;2024-01-27T08:18:30;14.82;;;3.67;;
83141;SDS011;75194;51.180;5.972;2024-01-27T08:20:56;12.15;;;3.67;;
83141;SDS011;75194;51.180;5.972;2024-01-27T08:23:22;16.67;;;3.70;;
83141;SDS011;75194;51.180;5.972;2024-01-27T08:25:48;13.38;;;3.60;;
83141;SDS011;75194;51.180;5.972;2024-01-27T08:28:17;14.95;;;4.03;;
83141;SDS011;75194;51.180;5.972;2024-01-27T08:30:42;15.95;;;4.10;;
83141;SDS011;75194;51.180;5.972;2024-01-27T08:33:08;12.63;;;3.78;;
83141;SDS011;75194;51.180;5.972;2024-01-27T08:35:34;14.32;;;4.22;;
83141;SDS011;75194;51.180;5.972;2024-01-27T08:37:59;13.15;;;3.63;;
83141;SDS011;75194;51.180;5.972;2024-01-27T08:40:25;13.98;;;3.28;;
83141;SDS011;75194;51.180;5.972;2024-01-27T08:42:50;14.10;;;3.33;;
83141;SDS011;75194;51.180;5.972;2024-01-27T08:45:16;10.48;;;2.67;;
83141;SDS011;75194;51.180;5.972;2024-01-27T08:47:42;12.93;;;3.33;;
83141;SDS011;75194;51.180;5.972;2024-01-27T08:50:09;12.82;;;3.05;;
83141;SDS011;75194;51.180;5.972;2024-01-27T08:52:35;14.32;;;3.53;;
83141;SDS011;75194;51.180;5.972;2024-01-27T08:55:01;14.52;;;3.55;;
83141;SDS011;75194;51.180;5.972;2024-01-27T08:57:27;14.90;;;4.10;;
83141;SDS011;75194;51.180;5.972;2024-01-27T08:59:53;13.75;;;3.47;;
83141;SDS011;75194;51.180;5.972;2024-01-27T09:02:18;11.32;;;3.25;;
83141;SDS011;75194;51.180;5.972;2024-01-27T09:04:44;14.30;;;2.97;;
83141;SDS011;75194;51.180;5.972;2024-01-27T09:07:11;13.98;;;3.92;;
83141;SDS011;75194;51.180;5.972;2024-01-27T09:09:36;11.73;;;3.72;;
83141;SDS011;75194;51.180;5.972;2024-01-27T09:14:29;11.85;;;3.67;;
83141;SDS011;75194;51.180;5.972;2024-01-27T09:16:55;12.50;;;4.00;;
83141;SDS011;75194;51.180;5.972;2024-01-27T09:19:21;10.57;;;2.58;;
83141;SDS011;75194;51.180;5.972;2024-01-27T09:21:47;13.50;;;2.65;;
83141;SDS011;75194;51.180;5.972;2024-01-27T09:24:12;12.45;;;3.13;;
83141;SDS011;75194;51.180;5.972;2024-01-27T09:26:38;12.07;;;2.20;;
83141;SDS011;75194;51.180;5.972;2024-01-27T09:29:04;11.45;;;2.80;;
83141;SDS011;75194;51.180;5.972;2024-01-27T09:31:29;10.57;;;2.83;;
83141;SDS011;75194;51.180;5.972;2024-01-27T09:33:55;16.08;;;3.00;;
83141;SDS011;75194;51.180;5.972;2024-01-27T09:36:21;13.52;;;4.03;;
83141;SDS011;75194;51.180;5.972;2024-01-27T09:38:46;10.57;;;2.90;;
83141;SDS011;75194;51.180;5.972;2024-01-27T09:41:12;10.35;;;3.63;;
83141;SDS011;75194;51.180;5.972;2024-01-27T09:43:42;12.88;;;3.33;;
83141;SDS011;75194;51.180;5.972;2024-01-27T09:46:14;12.23;;;2.60;;
83141;SDS011;75194;51.180;5.972;2024-01-27T09:48:40;10.48;;;2.53;;
83141;SDS011;75194;51.180;5.972;2024-01-27T09:51:07;10.93;;;2.70;;
83141;SDS011;75194;51.180;5.972;2024-01-27T09:53:34;11.82;;;3.08;;
83141;SDS011;75194;51.180;5.972;2024-01-27T09:56:00;13.07;;;3.00;;
83141;SDS011;75194;51.180;5.972;2024-01-27T09:58:29;9.70;;;2.45;;
83141;SDS011;75194;51.180;5.972;2024-01-27T10:00:56;10.02;;;2.85;;
83141;SDS011;75194;51.180;5.972;2024-01-27T10:03:23;12.98;;;2.50;;
83141;SDS011;75194;51.180;5.972;2024-01-27T10:05:51;10.75;;;2.67;;
83141;SDS011;75194;51.180;5.972;2024-01-27T10:08:21;11.65;;;2.50;;
83141;SDS011;75194;51.180;5.972;2024-01-27T10:10:48;11.88;;;3.50;;
83141;SDS011;75194;51.180;5.972;2024-01-27T10:13:19;10.52;;;2.83;;
83141;SDS011;75194;51.180;5.972;2024-01-27T10:15:58;12.45;;;2.88;;
83141;SDS011;75194;51.180;5.972;2024-01-27T10:18:28;10.38;;;2.80;;
83141;SDS011;75194;51.180;5.972;2024-01-27T10:20:54;9.93;;;2.30;;
83141;SDS011;75194;51.180;5.972;2024-01-27T10:23:20;9.05;;;2.08;;
83141;SDS011;75194;51.180;5.972;2024-01-27T10:25:45;9.20;;;2.10;;
83141;SDS011;75194;51.180;5.972;2024-01-27T10:28:11;9.48;;;1.85;;
83141;SDS011;75194;51.180;5.972;2024-01-27T10:30:37;11.68;;;2.35;;
83141;SDS011;75194;51.180;5.972;2024-01-27T10:33:03;12.43;;;2.80;;
83141;SDS011;75194;51.180;5.972;2024-01-27T10:35:29;8.32;;;2.40;;
83141;SDS011;75194;51.180;5.972;2024-01-27T10:37:55;12.27;;;2.95;;
83141;SDS011;75194;51.180;5.972;2024-01-27T10:40:22;10.07;;;2.10;;
83141;SDS011;75194;51.180;5.972;2024-01-27T10:43:01;12.18;;;2.55;;
83141;SDS011;75194;51.180;5.972;2024-01-27T10:48:01;11.00;;;2.50;;
83141;SDS011;75194;51.180;5.972;2024-01-27T10:50:28;10.27;;;2.35;;
83141;SDS011;75194;51.180;5.972;2024-01-27T10:52:54;10.43;;;2.30;;
83141;SDS011;75194;51.180;5.972;2024-01-27T10:55:26;11.73;;;2.75;;
83141;SDS011;75194;51.180;5.972;2024-01-27T10:57:52;9.50;;;3.17;;
83141;SDS011;75194;51.180;5.972;2024-01-27T11:00:20;11.02;;;2.58;;
83141;SDS011;75194;51.180;5.972;2024-01-27T11:02:47;9.63;;;2.30;;
83141;SDS011;75194;51.180;5.972;2024-01-27T11:05:18;9.45;;;2.22;;
83141;SDS011;75194;51.180;5.972;2024-01-27T11:07:45;11.57;;;2.22;;
83141;SDS011;75194;51.180;5.972;2024-01-27T11:10:12;12.70;;;2.25;;
83141;SDS011;75194;51.180;5.972;2024-01-27T11:12:37;9.90;;;2.58;;
83141;SDS011;75194;51.180;5.972;2024-01-27T11:15:04;9.10;;;2.45;;
83141;SDS011;75194;51.180;5.972;2024-01-27T11:17:38;10.55;;;3.30;;
83141;SDS011;75194;51.180;5.972;2024-01-27T11:20:06;14.32;;;2.63;;
83141;SDS011;75194;51.180;5.972;2024-01-27T11:22:40;13.07;;;3.25;;
83141;SDS011;75194;51.180;5.972;2024-01-27T11:27:38;11.45;;;3.38;;
83141;SDS011;75194;51.180;5.972;2024-01-27T11:30:05;10.38;;;2.72;;
83141;SDS011;75194;51.180;5.972;2024-01-27T11:32:33;11.45;;;2.63;;
83141;SDS011;75194;51.180;5.972;2024-01-27T11:35:00;13.45;;;3.30;;
83141;SDS011;75194;51.180;5.972;2024-01-27T11:37:29;12.77;;;2.45;;
83141;SDS011;75194;51.180;5.972;2024-01-27T11:40:04;12.13;;;2.97;;
83141;SDS011;75194;51.180;5.972;2024-01-27T11:42:31;9.93;;;2.75;;
83141;SDS011;75194;51.180;5.972;2024-01-27T11:44:57;11.98;;;3.10;;
83141;SDS011;75194;51.180;5.972;2024-01-27T11:47:22;13.88;;;3.42;;
83141;SDS011;75194;51.180;5.972;2024-01-27T11:49:52;14.75;;;3.78;;
83141;SDS011;75194;51.180;5.972;2024-01-27T11:52:19;15.38;;;2.58;;
83141;SDS011;75194;51.180;5.972;2024-01-27T11:54:45;10.10;;;2.50;;
83141;SDS011;75194;51.180;5.972;2024-01-27T11:57:11;9.02;;;3.75;;
83141;SDS011;75194;51.180;5.972;2024-01-27T11:59:36;10.27;;;2.40;;
83141;SDS011;75194;51.180;5.972;2024-01-27T12:02:02;9.20;;;2.65;;
83141;SDS011;75194;51.180;5.972;2024-01-27T12:04:28;12.18;;;2.90;;
83141;SDS011;75194;51.180;5.972;2024-01-27T12:06:54;10.30;;;2.38;;
83141;SDS011;75194;51.180;5.972;2024-01-27T12:09:19;11.93;;;2.40;;
83141;SDS011;75194;51.180;5.972;2024-01-27T12:11:45;10.02;;;2.22;;
83141;SDS011;75194;51.180;5.972;2024-01-27T12:14:11;11.15;;;2.53;;
83141;SDS011;75194;51.180;5.972;2024-01-27T12:16:37;9.30;;;1.90;;
83141;SDS011;75194;51.180;5.972;2024-01-27T12:19:03;8.40;;;1.92;;
83141;SDS011;75194;51.180;5.972;2024-01-27T12:21:29;9.27;;;3.10;;
83141;SDS011;75194;51.180;5.972;2024-01-27T12:23:56;8.57;;;2.10;;
83141;SDS011;75194;51.180;5.972;2024-01-27T12:26:24;10.70;;;2.00;;
83141;SDS011;75194;51.180;5.972;2024-01-27T12:28:51;9.70;;;2.95;;
83141;SDS011;75194;51.180;5.972;2024-01-27T12:31:16;9.07;;;2.42;;
83141;SDS011;75194;51.180;5.972;2024-01-27T12:33:52;8.38;;;1.83;;
83141;SDS011;75194;51.180;5.972;2024-01-27T12:36:20;11.38;;;2.40;;
83141;SDS011;75194;51.180;5.972;2024-01-27T12:38:53;13.02;;;1.92;;
83141;SDS011;75194;51.180;5.972;2024-01-27T12:41:24;11.82;;;1.85;;
83141;SDS011;75194;51.180;5.972;2024-01-27T12:46:15;9.63;;;1.60;;
83141;SDS011;75194;51.180;5.972;2024-01-27T12:48:41;7.80;;;1.55;;
83141;SDS011;75194;51.180;5.972;2024-01-27T12:51:08;9.00;;;1.98;;
83141;SDS011;75194;51.180;5.972;2024-01-27T12:53:34;8.80;;;1.38;;
83141;SDS011;75194;51.180;5.972;2024-01-27T12:55:59;8.57;;;1.70;;
83141;SDS011;75194;51.180;5.972;2024-01-27T12:58:25;8.55;;;2.05;;
83141;SDS011;75194;51.180;5.972;2024-01-27T13:00:51;10.35;;;2.45;;
83141;SDS011;75194;51.180;5.972;2024-01-27T13:03:16;7.82;;;1.17;;
83141;SDS011;75194;51.180;5.972;2024-01-27T13:05:42;9.73;;;2.22;;
83141;SDS011;75194;51.180;5.972;2024-01-27T13:08:08;7.03;;;1.80;;
83141;SDS011;75194;51.180;5.972;2024-01-27T13:10:34;8.50;;;1.40;;
83141;SDS011;75194;51.180;5.972;2024-01-27T13:13:00;9.27;;;1.50;;
83141;SDS011;75194;51.180;5.972;2024-01-27T13:15:26;6.85;;;1.10;;
83141;SDS011;75194;51.180;5.972;2024-01-27T13:17:52;8.63;;;1.77;;
83141;SDS011;75194;51.180;5.972;2024-01-27T13:20:17;9.57;;;1.52;;
83141;SDS011;75194;51.180;5.972;2024-01-27T13:22:43;7.95;;;1.30;;
83141;SDS011;75194;51.180;5.972;2024-01-27T13:25:10;7.63;;;1.58;;
83141;SDS011;75194;51.180;5.972;2024-01-27T13:27:35;6.22;;;1.63;;
83141;SDS011;75194;51.180;5.972;2024-01-27T13:30:01;6.18;;;1.33;;
83141;SDS011;75194;51.180;5.972;2024-01-27T13:32:27;8.75;;;1.25;;
83141;SDS011;75194;51.180;5.972;2024-01-27T13:34:53;9.02;;;1.20;;
83141;SDS011;75194;51.180;5.972;2024-01-27T13:37:19;10.80;;;1.73;;
83141;SDS011;75194;51.180;5.972;2024-01-27T13:39:47;6.20;;;1.08;;
83141;SDS011;75194;51.180;5.972;2024-01-27T13:42:12;7.40;;;1.30;;
83141;SDS011;75194;51.180;5.972;2024-01-27T13:44:38;8.98;;;1.77;;
83141;SDS011;75194;51.180;5.972;2024-01-27T13:47:04;7.65;;;1.10;;
83141;SDS011;75194;51.180;5.972;2024-01-27T13:49:33;7.03;;;0.88;;
83141;SDS011;75194;51.180;5.972;2024-01-27T13:51:59;7.18;;;1.70;;
83141;SDS011;75194;51.180;5.972;2024-01-27T13:54:24;9.60;;;1.05;;
83141;SDS011;75194;51.180;5.972;2024-01-27T13:56:50;9.50;;;1.45;;
83141;SDS011;75194;51.180;5.972;2024-01-27T13:59:16;9.27;;;1.63;;
83141;SDS011;75194;51.180;5.972;2024-01-27T14:01:42;7.82;;;1.10;;
83141;SDS011;75194;51.180;5.972;2024-01-27T14:04:07;7.95;;;1.08;;
83141;SDS011;75194;51.180;5.972;2024-01-27T14:06:33;7.78;;;1.20;;
83141;SDS011;75194;51.180;5.972;2024-01-27T14:08:59;8.55;;;1.00;;
83141;SDS011;75194;51.180;5.972;2024-01-27T14:11:26;7.45;;;1.10;;
83141;SDS011;75194;51.180;5.972;2024-01-27T14:13:53;8.32;;;0.93;;
83141;SDS011;75194;51.180;5.972;2024-01-27T14:16:18;6.25;;;1.02;;
83141;SDS011;75194;51.180;5.972;2024-01-27T14:18:44;5.85;;;1.35;;
83141;SDS011;75194;51.180;5.972;2024-01-27T14:21:10;9.77;;;1.63;;
83141;SDS011;75194;51.180;5.972;2024-01-27T14:23:36;9.25;;;1.20;;
83141;SDS011;75194;51.180;5.972;2024-01-27T14:26:03;10.00;;;2.22;;
83141;SDS011;75194;51.180;5.972;2024-01-27T14:28:29;8.68;;;1.27;;
83141;SDS011;75194;51.180;5.972;2024-01-27T14:30:54;7.95;;;1.10;;
83141;SDS011;75194;51.180;5.972;2024-01-27T14:33:20;9.57;;;1.40;;
83141;SDS011;75194;51.180;5.972;2024-01-27T14:38:13;7.90;;;1.10;;
83141;SDS011;75194;51.180;5.972;2024-01-27T14:40:38;7.32;;;1.33;;
83141;SDS011;75194;51.180;5.972;2024-01-27T14:43:04;7.88;;;1.35;;
83141;SDS011;75194;51.180;5.972;2024-01-27T14:45:34;10.48;;;1.90;;